createdAt,value
2023-04-14T00:02:13.787Z,97259.97
2023-04-14T00:05:22.503Z,97261.88
2023-04-14T00:08:29.106Z,97260.22
2023-04-14T00:11:34.604Z,97255.22
2023-04-14T00:14:43.420Z,97255.44
2023-04-14T00:17:49.403Z,97252.13
2023-04-14T00:20:58.689Z,97250.28
2023-04-14T00:24:04.143Z,97249.59
2023-04-14T00:27:10.496Z,97246.97
2023-04-14T00:30:16.594Z,97242.09
2023-04-14T00:33:23.224Z,97236.59
2023-04-14T00:36:32.468Z,97232.66
2023-04-14T00:39:40.274Z,97230.38
2023-04-14T00:42:47.302Z,97232.06
2023-04-14T00:45:54.968Z,97231.94
2023-04-14T00:49:02.072Z,97228.50
2023-04-14T00:52:12.402Z,97231.31
2023-04-14T00:55:21.447Z,97224.19
2023-04-14T00:58:29.480Z,97218.94
2023-04-14T01:01:37.468Z,97221.22
2023-04-14T01:04:53.411Z,97220.13
2023-04-14T01:08:04.274Z,97223.47
2023-04-14T01:11:26.416Z,97219.66
2023-04-14T01:14:46.911Z,97220.94
2023-04-14T01:18:08.337Z,97219.16
2023-04-14T01:21:22.002Z,97204.63
2023-04-14T01:25:03.649Z,97207.72
2023-04-14T01:28:34.310Z,97196.22
2023-04-14T01:31:51.311Z,97196.81
2023-04-14T01:35:08.162Z,97205.88
2023-04-14T01:38:27.636Z,97203.47
2023-04-14T01:41:40.305Z,97214.00
2023-04-14T01:44:48.945Z,97223.41
2023-04-14T01:47:59.465Z,97221.50
2023-04-14T01:51:09.345Z,97217.94
2023-04-14T01:54:21.310Z,97214.84
2023-04-14T01:57:29.925Z,97212.19
2023-04-14T02:00:39.340Z,97168.31
2023-04-14T02:03:52.219Z,97213.50
2023-04-14T02:07:06.095Z,97205.50
2023-04-14T02:10:15.134Z,97181.16
2023-04-14T02:13:25.927Z,97191.91
2023-04-14T02:16:34.074Z,97195.97
2023-04-14T02:19:47.222Z,97199.31
2023-04-14T02:22:53.054Z,97191.19
2023-04-14T02:26:08.819Z,97190.47
2023-04-14T02:29:19.294Z,97185.94
2023-04-14T02:32:30.646Z,97191.06
2023-04-14T02:35:47.279Z,97183.06
2023-04-14T02:39:01.168Z,97182.78
2023-04-14T02:42:16.999Z,97180.66
2023-04-14T02:45:30.748Z,97157.97
2023-04-14T02:48:43.208Z,97168.72
2023-04-14T02:51:57.189Z,97164.78
2023-04-14T02:55:06.973Z,97165.03
2023-04-14T02:58:13.985Z,97171.63
2023-04-14T03:01:22.689Z,97159.69
2023-04-14T03:04:35.686Z,97159.09
2023-04-14T03:07:54.210Z,97148.03
2023-04-14T03:11:04.254Z,97148.75
2023-04-14T03:14:11.504Z,97150.19
2023-04-14T03:17:21.500Z,97149.72
2023-04-14T03:20:30.700Z,97160.47
2023-04-14T03:23:42.875Z,97152.97
2023-04-14T03:26:52.437Z,97149.72
2023-04-14T03:30:07.272Z,97162.38
2023-04-14T03:33:22.044Z,97164.06
2023-04-14T03:36:32.502Z,97162.38
2023-04-14T03:39:43.661Z,97160.47
2023-04-14T03:42:53.845Z,97159.63
2023-04-14T03:46:00.889Z,97144.97
2023-04-14T03:49:16.317Z,97136.50
2023-04-14T03:52:28.151Z,97144.53
2023-04-14T03:55:41.712Z,97135.44
2023-04-14T03:58:51.348Z,97138.91
2023-04-14T04:02:00.948Z,97140.13
2023-04-14T04:05:10.603Z,97131.47
2023-04-14T04:08:18.806Z,97128.28
2023-04-14T04:11:32.029Z,97131.75
2023-04-14T04:14:42.516Z,97136.00
2023-04-14T04:17:54.363Z,97127.19
2023-04-14T04:21:04.525Z,97134.72
2023-04-14T04:24:11.872Z,97138.06
2023-04-14T04:27:28.075Z,97139.50
2023-04-14T04:30:43.766Z,97138.53
2023-04-14T04:33:52.049Z,97134.47
2023-04-14T04:36:59.910Z,97133.03
2023-04-14T04:40:07.611Z,97135.84
2023-04-14T04:43:16.309Z,97131.09
2023-04-14T04:46:47.533Z,97132.50
2023-04-14T04:49:54.648Z,97138.00
2023-04-14T04:53:04.113Z,97130.38
2023-04-14T04:56:10.927Z,97109.97
2023-04-14T04:59:20.210Z,97134.06
2023-04-14T05:02:26.063Z,97140.59
2023-04-14T05:05:32.689Z,97122.44
2023-04-14T05:08:38.508Z,97122.28
2023-04-14T05:11:44.885Z,97109.00
2023-04-14T05:14:53.209Z,97093.38
2023-04-14T05:18:00.190Z,97096.75
2023-04-14T05:21:06.898Z,97099.50
2023-04-14T05:24:13.223Z,97099.50
2023-04-14T05:27:18.680Z,97104.91
2023-04-14T05:30:28.230Z,97114.19
2023-04-14T05:33:33.764Z,97112.59
2023-04-14T05:36:40.140Z,97113.50
2023-04-14T05:39:45.902Z,97107.47
2023-04-14T05:42:52.451Z,97098.72
2023-04-14T05:46:01.882Z,97091.59
2023-04-14T05:49:08.575Z,97082.50
2023-04-14T05:52:14.113Z,97077.47
2023-04-14T05:55:21.503Z,97078.31
2023-04-14T05:58:27.065Z,97069.16
2023-04-14T06:01:36.414Z,97071.91
2023-04-14T06:04:41.975Z,97067.75
2023-04-14T06:07:48.722Z,97064.16
2023-04-14T06:10:54.207Z,97056.72
2023-04-14T06:14:02.292Z,97067.38
2023-04-14T06:17:10.887Z,97049.59
2023-04-14T06:20:18.855Z,97060.88
2023-04-14T06:23:26.924Z,96979.28
2023-04-14T06:26:33.341Z,97052.31
2023-04-14T06:29:38.884Z,97067.28
2023-04-14T06:32:48.941Z,97068.16
2023-04-14T06:35:55.173Z,97063.75
2023-04-14T06:39:01.921Z,97063.53
2023-04-14T06:42:07.643Z,97057.84
2023-04-14T06:45:16.735Z,97058.34
2023-04-14T06:48:24.952Z,97046.69
2023-04-14T06:51:31.426Z,97044.56
2023-04-14T06:54:37.068Z,97043.03
2023-04-14T06:57:43.549Z,97029.47
2023-04-14T07:00:49.037Z,97023.94
2023-04-14T07:03:58.289Z,97013.38
2023-04-14T07:07:04.416Z,97007.31
2023-04-14T07:10:12.955Z,97005.94
2023-04-14T07:13:18.457Z,97014.25
2023-04-14T07:16:25.043Z,96998.13
2023-04-14T07:19:33.346Z,96994.84
2023-04-14T07:22:39.789Z,96985.38
2023-04-14T07:25:45.332Z,96992.00
2023-04-14T07:28:51.966Z,96986.34
2023-04-14T07:31:57.701Z,96974.84
2023-04-14T07:35:08.948Z,96990.09
2023-04-14T07:38:14.494Z,96989.66
2023-04-14T07:41:21.814Z,96993.66
2023-04-14T07:44:27.603Z,96997.91
2023-04-14T07:47:34.216Z,96986.34
2023-04-14T07:50:42.621Z,96987.72
2023-04-14T07:53:49.220Z,96995.78
2023-04-14T07:56:55.140Z,96997.00
2023-04-14T08:00:01.467Z,97001.59
2023-04-14T08:03:07.579Z,96998.09
2023-04-14T08:06:17.111Z,96995.13
2023-04-14T08:09:22.578Z,96989.78
2023-04-14T08:12:29.121Z,96992.75
2023-04-14T08:15:35.327Z,96988.94
2023-04-14T08:18:43.785Z,96980.72
2023-04-14T08:21:52.422Z,96991.78
2023-04-14T08:24:58.766Z,96987.72
2023-04-14T08:28:04.300Z,96993.38
2023-04-14T08:31:10.980Z,96988.19
2023-04-14T08:34:20.976Z,96989.09
2023-04-14T08:37:37.848Z,96981.28
2023-04-14T08:40:46.646Z,96985.81
2023-04-14T08:43:53.066Z,96980.91
2023-04-14T08:46:59.840Z,96978.78
2023-04-14T08:50:10.339Z,96982.47
2023-04-14T08:53:24.704Z,96977.09
2023-04-14T08:56:38.402Z,96975.94
2023-04-14T08:59:45.399Z,96980.09
2023-04-14T09:02:55.956Z,96983.09
2023-04-14T09:06:04.110Z,96977.19
2023-04-14T09:09:14.332Z,96977.63
2023-04-14T09:12:21.174Z,96969.44
2023-04-14T09:15:29.347Z,96978.97
2023-04-14T09:18:36.478Z,96971.00
2023-04-14T09:21:53.546Z,96967.28
2023-04-14T09:25:03.714Z,96961.84
2023-04-14T09:28:11.021Z,96961.91
2023-04-14T09:31:17.071Z,96852.22
2023-04-14T09:34:25.150Z,96932.47
2023-04-14T09:37:32.325Z,96948.38
2023-04-14T09:40:42.064Z,96936.75
2023-04-14T09:43:48.126Z,96937.78
2023-04-14T09:47:03.193Z,96934.75
2023-04-14T09:50:10.726Z,96925.81
2023-04-14T09:53:17.594Z,96924.13
2023-04-14T09:56:30.888Z,96893.31
2023-04-14T09:59:39.903Z,96926.59
2023-04-14T10:02:52.290Z,96920.75
2023-04-14T10:05:58.729Z,96905.97
2023-04-14T10:09:06.167Z,96905.56
2023-04-14T10:12:18.796Z,96910.31
2023-04-14T10:15:24.963Z,96901.69
2023-04-14T10:18:31.446Z,96908.59
2023-04-14T10:21:38.023Z,96903.88
2023-04-14T10:24:44.705Z,96891.41
2023-04-14T10:27:54.413Z,96903.44
2023-04-14T10:31:04.839Z,96898.34
2023-04-14T10:34:12.273Z,96893.44
2023-04-14T10:37:19.997Z,96898.41
2023-04-14T10:40:25.881Z,96900.66
2023-04-14T10:43:35.628Z,96888.78
2023-04-14T10:46:47.179Z,96894.31
2023-04-14T10:49:53.825Z,96882.28
2023-04-14T10:53:00.706Z,96892.63
2023-04-14T10:56:09.071Z,96896.38
2023-04-14T10:59:17.882Z,96885.06
2023-04-14T11:02:30.383Z,96876.78
2023-04-14T11:05:37.887Z,96871.47
2023-04-14T11:08:53.975Z,96870.47
2023-04-14T11:12:05.348Z,96865.78
2023-04-14T11:15:15.478Z,96860.94
2023-04-14T11:18:35.172Z,96862.41
2023-04-14T11:21:53.999Z,96878.16
2023-04-14T11:24:59.582Z,96863.72
2023-04-14T11:28:06.596Z,96855.22
2023-04-14T11:31:21.061Z,96863.22
2023-04-14T11:34:30.200Z,96856.03
2023-04-14T11:37:39.196Z,96835.59
2023-04-14T11:40:51.524Z,96850.03
2023-04-14T11:43:57.762Z,96831.19
2023-04-14T11:47:08.586Z,96828.91
2023-04-14T11:50:14.750Z,96835.19
2023-04-14T11:53:23.182Z,96839.91
2023-04-14T11:56:29.121Z,96835.97
2023-04-14T11:59:45.791Z,96836.22
2023-04-14T12:02:55.058Z,96831.72
2023-04-14T12:06:03.613Z,96818.41
2023-04-14T12:09:12.765Z,96832.06
2023-04-14T12:12:22.961Z,96834.09
2023-04-14T12:15:29.570Z,96827.75
2023-04-14T12:18:39.862Z,96823.44
2023-04-14T12:21:45.978Z,96823.63
2023-04-14T12:24:52.510Z,96812.88
2023-04-14T12:27:58.634Z,96809.09
2023-04-14T12:31:07.778Z,96807.78
2023-04-14T12:34:20.238Z,96802.06
2023-04-14T12:37:29.553Z,96792.72
2023-04-14T12:40:42.911Z,96795.25
2023-04-14T12:43:50.433Z,96801.84
2023-04-14T12:46:56.943Z,96783.69
2023-04-14T12:50:28.435Z,96786.41
2023-04-14T12:53:34.765Z,96779.34
2023-04-14T12:56:48.175Z,96739.09
2023-04-14T13:00:05.607Z,96732.59
2023-04-14T13:03:12.386Z,96751.25
2023-04-14T13:06:23.004Z,96753.66
2023-04-14T13:09:30.276Z,96750.50
2023-04-14T13:12:36.185Z,96744.34
2023-04-14T13:16:13.312Z,96746.47
2023-04-14T13:19:08.758Z,96736.00
2023-04-14T13:22:18.078Z,96739.72
2023-04-14T13:25:23.637Z,96752.44
2023-04-14T13:28:30.654Z,96756.31
2023-04-14T13:31:36.365Z,96764.06
2023-04-14T13:34:44.135Z,96736.47
2023-04-14T13:37:52.672Z,96750.88
2023-04-14T13:40:59.024Z,96757.38
2023-04-14T13:44:04.802Z,96751.25
2023-04-14T13:47:12.945Z,96753.72
2023-04-14T13:50:19.123Z,96747.94
2023-04-14T13:53:29.063Z,96759.78
2023-04-14T13:56:34.747Z,96751.25
2023-04-14T13:59:41.144Z,96759.50
2023-04-14T14:02:47.670Z,96757.38
2023-04-14T14:05:54.353Z,96759.31
2023-04-14T14:09:08.154Z,96764.06
2023-04-14T14:12:17.326Z,96757.81
2023-04-14T14:15:22.858Z,96756.06
2023-04-14T14:18:29.274Z,96756.06
2023-04-14T14:21:34.796Z,96749.47
2023-04-14T14:24:44.106Z,96746.97
2023-04-14T14:27:50.462Z,96755.72
2023-04-14T14:30:57.085Z,96749.66
2023-04-14T14:34:02.811Z,96751.03
2023-04-14T14:37:09.485Z,96742.81
2023-04-14T14:40:18.332Z,96745.97
2023-04-14T14:43:24.680Z,96754.25
2023-04-14T14:46:30.293Z,96752.88
2023-04-14T14:49:41.115Z,96758.47
2023-04-14T14:52:48.999Z,96751.13
2023-04-14T14:55:58.101Z,96758.84
2023-04-14T14:59:03.599Z,96757.38
2023-04-14T15:02:10.073Z,96757.16
2023-04-14T15:05:15.633Z,96759.91
2023-04-14T15:08:22.090Z,96762.97
2023-04-14T15:11:30.949Z,96768.53
2023-04-14T15:14:37.383Z,96767.47
2023-04-14T15:17:42.905Z,96767.50
2023-04-14T15:20:50.822Z,96754.94
2023-04-14T15:23:56.648Z,96755.19
2023-04-14T15:27:06.185Z,96758.38
2023-04-14T15:30:12.999Z,96746.56
2023-04-14T15:33:19.369Z,96765.25
2023-04-14T15:36:25.238Z,96762.84
2023-04-14T15:39:31.826Z,96772.13
2023-04-14T15:42:40.130Z,96766.22
2023-04-14T15:45:46.483Z,96776.81
2023-04-14T15:48:51.993Z,96773.19
2023-04-14T15:51:58.681Z,96777.31
2023-04-14T15:55:04.241Z,96775.19
2023-04-14T15:58:13.414Z,96775.53
2023-04-14T16:01:18.943Z,96774.22
2023-04-14T16:04:25.801Z,96778.03
2023-04-14T16:07:32.642Z,96780.88
2023-04-14T16:10:42.972Z,96791.66
2023-04-14T16:13:52.775Z,96777.78
2023-04-14T16:16:59.149Z,96779.63
2023-04-14T16:20:04.848Z,96782.63
2023-04-14T16:23:11.843Z,96789.63
2023-04-14T16:26:18.742Z,96784.00
2023-04-14T16:29:29.004Z,96795.59
2023-04-14T16:32:34.589Z,96788.97
2023-04-14T16:35:41.318Z,96798.91
2023-04-14T16:38:46.851Z,96802.72
2023-04-14T16:41:53.239Z,96801.25
2023-04-14T16:45:02.034Z,96808.53
2023-04-14T16:48:08.533Z,96803.22
2023-04-14T16:51:14.559Z,96801.25
2023-04-14T16:54:20.887Z,96804.56
2023-04-14T16:57:26.536Z,96807.22
2023-04-14T17:00:35.913Z,96802.91
2023-04-14T17:03:41.621Z,96806.88
2023-04-14T17:06:49.441Z,96807.06
2023-04-14T17:09:54.911Z,96809.19
2023-04-14T17:13:01.239Z,96794.63
2023-04-14T17:16:11.404Z,96787.84
2023-04-14T17:19:17.765Z,96797.59
2023-04-14T17:22:23.250Z,96796.94
2023-04-14T17:25:30.814Z,96792.63
2023-04-14T17:28:37.550Z,96793.63
2023-04-14T17:31:48.331Z,96803.56
2023-04-14T17:34:55.148Z,96799.91
2023-04-14T17:38:01.647Z,96801.56
2023-04-14T17:41:09.078Z,96805.38
2023-04-14T17:44:17.098Z,96804.88
2023-04-14T17:47:25.694Z,96807.16
2023-04-14T17:50:33.923Z,96802.53
2023-04-14T17:53:39.588Z,96800.88
2023-04-14T17:56:46.214Z,96808.09
2023-04-14T17:59:51.815Z,96806.38
2023-04-14T18:03:01.915Z,96799.09
2023-04-14T18:06:07.929Z,96796.25
2023-04-14T18:09:14.390Z,96802.53
2023-04-14T18:12:23.027Z,96800.38
2023-04-14T18:15:29.479Z,96798.22
2023-04-14T18:18:37.909Z,96793.53
2023-04-14T18:21:45.149Z,96789.38
2023-04-14T18:24:51.227Z,96792.97
2023-04-14T18:31:07.080Z,96793.41
2023-04-14T18:34:17.058Z,96779.97
2023-04-14T18:37:22.745Z,96792.66
2023-04-14T18:40:29.768Z,96783.25
2023-04-14T18:43:37.257Z,96780.59
2023-04-14T18:46:44.238Z,96779.94
2023-04-14T18:49:52.535Z,96785.66
2023-04-14T18:52:58.893Z,96780.19
2023-04-14T18:56:04.905Z,96778.56
2023-04-14T18:59:11.606Z,96776.59
2023-04-14T19:02:17.503Z,96773.94
2023-04-14T19:05:27.697Z,96777.72
2023-04-14T19:08:33.648Z,96772.22
2023-04-14T19:11:40.346Z,96727.81
2023-04-14T19:14:47.268Z,96766.22
2023-04-14T19:17:53.757Z,96759.44
2023-04-14T19:21:02.143Z,96769.16
2023-04-14T19:24:09.181Z,96770.13
2023-04-14T19:27:15.096Z,96771.72
2023-04-14T19:30:22.146Z,96762.28
2023-04-14T19:33:27.914Z,96765.38
2023-04-14T19:36:37.763Z,96765.72
2023-04-14T19:39:43.338Z,96760.44
2023-04-14T19:42:49.690Z,96758.47
2023-04-14T19:45:58.288Z,96765.00
2023-04-14T19:49:04.601Z,96751.06
2023-04-14T19:52:13.501Z,96758.31
2023-04-14T19:55:20.417Z,96752.84
2023-04-14T19:58:26.962Z,96750.97
2023-04-14T20:01:33.981Z,96758.88
2023-04-14T20:04:39.906Z,96758.19
2023-04-14T20:07:50.130Z,96761.53
2023-04-14T20:10:56.889Z,96770.41
2023-04-14T20:14:04.027Z,96770.13
2023-04-14T20:17:09.842Z,96768.59
2023-04-14T20:20:16.839Z,96768.16
2023-04-14T20:23:25.444Z,96771.44
2023-04-14T20:26:32.503Z,96775.13
2023-04-14T20:29:38.085Z,96779.44
2023-04-14T20:32:44.482Z,96776.44
2023-04-14T20:35:53.684Z,96771.44
2023-04-14T20:39:03.282Z,96770.41
2023-04-14T20:42:09.608Z,96771.00
2023-04-14T20:45:15.963Z,96771.63
2023-04-14T20:48:21.828Z,96765.28
2023-04-14T20:51:28.301Z,96768.75
2023-04-14T20:54:36.783Z,96777.50
2023-04-14T20:57:43.245Z,96779.47
2023-04-14T21:00:49.539Z,96790.53
2023-04-14T21:03:56.483Z,96788.25
2023-04-14T21:07:02.227Z,96795.06
2023-04-14T21:10:15.563Z,96797.25
2023-04-14T21:15:30.902Z,96784.44
2023-04-14T21:16:47.564Z,96796.81
2023-04-14T21:19:53.277Z,96799.13
2023-04-14T21:23:00.406Z,96801.91
2023-04-14T21:26:08.753Z,96812.34
2023-04-14T21:29:15.150Z,96813.97
2023-04-14T21:32:20.987Z,96804.13
2023-04-14T21:35:27.440Z,96803.41
2023-04-14T21:38:33.157Z,96814.31
2023-04-14T21:41:42.598Z,96807.28
2023-04-14T21:44:49.442Z,96814.06
2023-04-14T21:47:55.742Z,96820.47
2023-04-14T21:51:01.834Z,96830.06
2023-04-14T21:54:08.221Z,96833.38
2023-04-14T21:57:16.752Z,96829.72
2023-04-14T22:00:24.289Z,96825.44
2023-04-14T22:03:30.269Z,96832.38
2023-04-14T22:06:38.421Z,96840.16
2023-04-14T22:09:44.348Z,96837.66
2023-04-14T22:12:53.957Z,96833.81
2023-04-14T22:15:59.409Z,96842.16
2023-04-14T22:19:06.621Z,96850.69
2023-04-14T22:22:12.435Z,96848.06
2023-04-14T22:25:19.915Z,96851.44
2023-04-14T22:28:28.251Z,96861.22
2023-04-14T22:31:34.652Z,96854.88
2023-04-14T22:34:40.245Z,96861.31
2023-04-14T22:37:46.565Z,96860.78
2023-04-14T22:40:52.788Z,96854.84
2023-04-14T22:44:02.280Z,96868.34
2023-04-14T22:47:07.845Z,96870.25
2023-04-14T22:50:14.805Z,96870.25
2023-04-14T22:53:20.247Z,96865.28
2023-04-14T22:56:26.955Z,96888.81
2023-04-14T22:59:35.265Z,96896.00
2023-04-14T23:02:42.552Z,96887.97
2023-04-14T23:05:48.676Z,96889.94
2023-04-14T23:08:55.398Z,96893.25
2023-04-14T23:12:01.557Z,96901.81
2023-04-14T23:15:12.027Z,96895.44
2023-04-14T23:18:17.753Z,96901.53
2023-04-14T23:21:25.148Z,96896.41
2023-04-14T23:24:31.045Z,96890.44
2023-04-14T23:27:37.392Z,96887.97
2023-04-14T23:30:46.007Z,96890.59
2023-04-14T23:33:53.138Z,96894.88
2023-04-14T23:36:58.652Z,96908.06
2023-04-14T23:40:06.405Z,96904.06
2023-04-14T23:43:11.880Z,96922.63
2023-04-14T23:46:21.984Z,96926.72
2023-04-14T23:49:34.039Z,96925.75
2023-04-14T23:52:41.672Z,96922.16
2023-04-14T23:55:47.920Z,96926.88
2023-04-14T23:58:54.293Z,96932.69
